Time;durP1;ratioP1;P1;durP2;ratioP2;P2;SDS_P1;SDS_P2;PMS_P1;PMS_P2;Temp;Humidity;BMP_temperature;BMP_pressure;BME280_temperature;BME280_humidity;BME280_pressure;Samples;Min_cycle;Max_cycle;Signal;HPM_P1;HPM_P2
2021/12/07 00:00:39;;;;;;;;;2.75;2.75;;;;;9.48;64.73;100694.69;2070218;28;48448;-58
2021/12/07 00:01:40;;;;;;;;;7.67;4.33;;;;;9.48;64.62;100698.19;2060288;28;47651;-59
2021/12/07 00:02:41;;;;;;;;;2.00;2.00;;;;;9.47;64.71;100707.06;2057166;28;48560;-58
2021/12/07 00:03:42;;;;;;;;;7.33;4.00;;;;;9.48;64.69;100705.28;2073255;28;47260;-58
2021/12/07 00:04:42;;;;;;;;;2.75;2.75;;;;;9.47;64.78;100704.41;2071541;28;47283;-58
2021/12/07 00:05:43;;;;;;;;;2.33;2.33;;;;;9.48;64.89;100716.75;2071357;28;46463;-59
2021/12/07 00:06:44;;;;;;;;;2.67;2.33;;;;;9.49;64.83;100721.13;2068039;28;47500;-58
2021/12/07 00:07:44;;;;;;;;;4.67;3.00;;;;;9.48;64.85;100735.28;2065421;28;48110;-58
2021/12/07 00:08:45;;;;;;;;;4.67;2.67;;;;;9.49;64.83;100737.03;2073439;28;47985;-58
2021/12/07 00:09:49;;;;;;;;;2.25;2.25;;;;;9.50;64.76;100740.56;2069318;28;48442;-58
2021/12/07 00:10:51;;;;;;;;;4.00;4.00;;;;;9.50;64.65;100733.47;2072242;28;46119;-58
2021/12/07 00:11:52;;;;;;;;;2.50;2.00;;;;;9.50;64.78;100736.13;2072873;28;48064;-58
2021/12/07 00:12:53;;;;;;;;;3.00;3.00;;;;;9.50;64.49;100722.88;2073083;28;48166;-58
2021/12/07 00:13:57;;;;;;;;;4.00;4.00;;;;;9.51;64.92;100721.09;2072378;28;48112;-58
2021/12/07 00:15:01;;;;;;;;;2.25;2.25;;;;;9.51;64.94;100723.75;2072676;28;48386;-59
2021/12/07 00:16:07;;;;;;;;;5.50;3.75;;;;;9.51;64.70;100732.56;2063924;28;47944;-59
2021/12/07 00:17:08;;;;;;;;;3.00;2.50;;;;;9.52;64.64;100722.84;2065188;28;48497;-58
2021/12/07 00:18:09;;;;;;;;;3.00;2.75;;;;;9.51;64.77;100726.41;2072867;28;47284;-58
2021/12/07 00:19:13;;;;;;;;;2.00;2.00;;;;;9.50;64.65;100717.59;2072507;28;47147;-59
2021/12/07 00:20:17;;;;;;;;;3.00;2.75;;;;;9.52;64.83;100722.84;2072922;28;47192;-58
2021/12/07 00:21:19;;;;;;;;;2.50;1.00;;;;;9.51;64.84;100718.47;2073254;28;48154;-59
2021/12/07 00:22:20;;;;;;;;;3.00;3.00;;;;;9.51;64.55;100718.47;2072916;28;47683;-58
2021/12/07 00:23:20;;;;;;;;;3.00;3.00;;;;;9.51;64.49;100719.34;2071605;28;47201;-58
2021/12/07 00:24:21;;;;;;;;;2.00;2.00;;;;;9.52;64.62;100715.78;2072545;28;48156;-58
2021/12/07 00:25:23;;;;;;;;;2.33;2.33;;;;;9.53;64.75;100719.31;2072881;28;47275;-58
2021/12/07 00:26:23;;;;;;;;;3.75;2.75;;;;;9.53;64.62;100716.66;2073000;28;47915;-57
2021/12/07 00:27:24;;;;;;;;;3.33;2.67;;;;;9.53;64.61;100714.91;2072606;28;48175;-59
2021/12/07 00:28:24;;;;;;;;;1.33;1.00;;;;;9.52;64.66;100721.06;2072886;28;47547;-59
2021/12/07 00:29:25;;;;;;;;;3.00;2.00;;;;;9.52;64.65;100712.25;2071135;28;48349;-58
2021/12/07 00:30:30;;;;;;;;;5.67;2.33;;;;;9.51;64.73;100714.03;2072966;28;47080;-59
2021/12/07 00:31:39;;;;;;;;;1.67;1.67;;;;;9.51;64.53;100716.69;2072726;28;47218;-57
2021/12/07 00:32:46;;;;;;;;;3.00;3.00;;;;;9.50;64.78;100714.94;2072946;28;47373;-58
2021/12/07 00:33:55;;;;;;;;;2.00;2.00;;;;;9.51;64.63;100729.06;2072780;28;48308;-58
2021/12/07 00:35:57;;;;;;;;;4.00;4.00;;;;;9.50;64.49;100719.38;2069889;28;47441;-58
2021/12/07 00:36:58;;;;;;;;;3.00;3.00;;;;;9.50;64.65;100719.38;2072903;28;48247;-58
2021/12/07 00:38:01;;;;;;;;;3.50;2.75;;;;;9.50;64.42;100729.97;2072729;28;47205;-57
2021/12/07 00:39:05;;;;;;;;;2.00;0.50;;;;;9.49;64.60;100721.13;2072689;28;47279;-59
2021/12/07 00:40:08;;;;;;;;;3.00;2.25;;;;;9.50;64.43;100732.59;2071760;28;48306;-58
2021/12/07 00:41:09;;;;;;;;;2.50;2.50;;;;;9.50;64.36;100717.59;2072642;28;48604;-59
2021/12/07 00:42:09;;;;;;;;;1.67;1.33;;;;;9.51;64.45;100721.09;2072896;28;45391;-58
2021/12/07 00:43:11;;;;;;;;;1.67;1.67;;;;;9.51;64.39;100729.94;2072963;28;47256;-58
2021/12/07 00:44:11;;;;;;;;;2.75;2.75;;;;;9.50;64.24;100730.81;2072236;28;47453;-58
2021/12/07 00:45:16;;;;;;;;;2.67;1.33;;;;;9.52;64.58;100739.63;2073257;28;46805;-59
2021/12/07 00:46:19;;;;;;;;;3.25;3.25;;;;;9.53;64.46;100736.09;2072820;28;48354;-58
2021/12/07 00:47:19;;;;;;;;;3.25;2.00;;;;;9.54;64.65;100743.16;2072907;28;47261;-59
2021/12/07 00:48:20;;;;;;;;;4.33;1.00;;;;;9.55;64.53;100736.94;2073010;28;47776;-58
2021/12/07 00:49:21;;;;;;;;;0.00;0.00;;;;;9.56;64.51;100730.75;2072473;28;47549;-59
2021/12/07 00:50:24;;;;;;;;;3.00;3.00;;;;;9.56;64.41;100727.22;2072935;28;48487;-58
2021/12/07 00:51:25;;;;;;;;;3.00;1.75;;;;;9.57;64.24;100731.63;2072648;28;49125;-58
2021/12/07 00:52:26;;;;;;;;;1.00;1.00;;;;;9.58;64.36;100733.34;2072858;28;47390;-59
2021/12/07 00:53:27;;;;;;;;;1.67;1.00;;;;;9.59;64.27;100732.47;2072743;28;46000;-58
2021/12/07 00:54:28;;;;;;;;;3.00;2.00;;;;;9.60;64.38;100732.44;2072358;28;47008;-58
2021/12/07 00:55:31;;;;;;;;;2.67;2.33;;;;;9.61;64.18;100736.81;2072728;28;48190;-58
2021/12/07 00:56:32;;;;;;;;;3.25;3.00;;;;;9.61;64.19;100728.88;2073056;28;47386;-59
2021/12/07 00:57:32;;;;;;;;;1.00;1.00;;;;;9.64;64.18;100730.59;2067482;28;47355;-59
2021/12/07 00:58:33;;;;;;;;;2.67;1.67;;;;;9.63;64.25;100724.41;2072878;28;47043;-56
2021/12/07 00:59:34;;;;;;;;;2.67;2.00;;;;;9.64;64.10;100736.75;2072063;28;46950;-57
2021/12/07 01:00:34;;;;;;;;;1.25;1.25;;;;;9.64;64.06;100736.75;2072893;28;47080;-58
2021/12/07 01:01:36;;;;;;;;;3.00;2.00;;;;;9.65;63.93;100734.97;2072386;28;48193;-59
2021/12/07 01:02:36;;;;;;;;;1.50;1.50;;;;;9.65;64.04;100733.22;2072795;28;48529;-58
2021/12/07 01:03:38;;;;;;;;;2.00;2.00;;;;;9.66;63.79;100736.75;2072656;28;48202;-60
2021/12/07 01:04:40;;;;;;;;;1.75;1.75;;;;;9.66;64.08;100737.63;2072228;28;48347;-58
2021/12/07 01:05:47;;;;;;;;;3.25;1.00;;;;;9.67;63.73;100739.38;2072735;28;47242;-59
2021/12/07 01:07:01;;;;;;;;;1.00;1.00;;;;;9.69;63.87;100739.34;2072890;28;48237;-58
2021/12/07 01:24:41;;;;;;;;;1.50;1.50;;;;;9.66;63.03;100737.63;2071339;28;47214;-58
2021/12/07 01:25:42;;;;;;;;;3.00;2.25;;;;;9.65;62.73;100733.22;2072507;28;47954;-58
2021/12/07 01:26:45;;;;;;;;;0.00;0.00;;;;;9.64;62.87;100731.47;2072689;28;47609;-58
2021/12/07 01:27:48;;;;;;;;;1.00;1.00;;;;;9.64;62.73;100731.47;2072458;28;48308;-57
2021/12/07 01:28:49;;;;;;;;;1.75;1.00;;;;;9.64;62.80;100723.50;2072565;28;46880;-58
2021/12/07 01:30:03;;;;;;;;;0.33;0.33;;;;;9.62;62.92;100720.03;2072080;28;48030;-58
2021/12/07 01:31:21;;;;;;;;;2.75;1.50;;;;;9.61;62.41;100720.94;2069331;28;46648;-57
2021/12/07 01:32:54;;;;;;;;;2.25;2.00;;;;;9.59;62.43;100725.38;2072642;28;47431;-58
2021/12/07 01:45:15;;;;;;;;;1.00;1.00;;;;;9.43;62.51;100743.31;2071663;28;47108;-58
2021/12/07 01:47:53;;;;;;;;;0.75;0.75;;;;;9.40;62.36;100748.69;2072233;28;47326;-58
2021/12/07 01:51:51;;;;;;;;;0.75;0.75;;;;;9.37;62.38;100748.69;2054595;28;47605;-58
2021/12/07 01:53:07;;;;;;;;;0.00;0.00;;;;;9.37;62.76;100750.47;2068879;28;47445;-58
2021/12/07 01:59:34;;;;;;;;;0.00;0.00;;;;;9.34;62.43;100743.47;2072079;28;47370;-59
2021/12/07 02:00:40;;;;;;;;;0.00;0.00;;;;;9.33;62.40;100746.13;2071766;28;48582;-59
2021/12/07 02:01:40;;;;;;;;;2.00;0.50;;;;;9.34;62.38;100751.41;2070804;28;47495;-58
2021/12/07 02:02:42;;;;;;;;;1.00;1.00;;;;;9.33;62.38;100746.13;2072468;28;47252;-58
2021/12/07 02:03:42;;;;;;;;;1.25;1.00;;;;;9.32;62.40;100749.69;2072131;28;46836;-58
2021/12/07 02:04:44;;;;;;;;;0.67;0.67;;;;;9.31;62.51;100745.28;2072128;28;47702;-58
2021/12/07 02:05:45;;;;;;;;;0.50;0.50;;;;;9.29;62.45;100747.97;2071872;28;48660;-57
2021/12/07 02:06:46;;;;;;;;;3.00;0.50;;;;;9.29;62.22;100752.41;2072716;28;47396;-58
2021/12/07 02:07:47;;;;;;;;;0.00;0.00;;;;;9.27;62.51;100751.50;2072459;28;48590;-58
2021/12/07 02:08:47;;;;;;;;;0.33;0.33;;;;;9.25;62.60;100753.31;2072678;28;47898;-58
2021/12/07 02:09:52;;;;;;;;;0.00;0.00;;;;;9.24;62.31;100749.78;2071890;28;47931;-58
2021/12/07 02:10:58;;;;;;;;;1.25;1.00;;;;;9.23;62.47;100758.66;2072574;28;48216;-59
2021/12/07 02:12:00;;;;;;;;;0.00;0.00;;;;;9.23;62.41;100760.41;2072229;28;47525;-59
2021/12/07 02:13:06;;;;;;;;;2.25;1.00;;;;;9.21;62.60;100751.63;2072284;28;48257;-58
2021/12/07 02:14:16;;;;;;;;;0.75;0.75;;;;;9.20;62.52;100756.06;2071675;28;47487;-59
2021/12/07 02:15:23;;;;;;;;;0.00;0.00;;;;;9.20;62.62;100748.09;2072586;28;47491;-58
2021/12/07 02:16:28;;;;;;;;;1.00;0.75;;;;;9.20;62.47;100758.69;2072422;28;48183;-59
2021/12/07 02:17:33;;;;;;;;;0.25;0.25;;;;;9.22;62.44;100756.03;2071984;28;47474;-59
2021/12/07 02:18:33;;;;;;;;;0.25;0.25;;;;;9.22;62.56;100746.31;2072372;28;47222;-58
2021/12/07 02:19:34;;;;;;;;;0.00;0.00;;;;;9.21;62.54;100747.22;2071480;28;48287;-59
2021/12/07 02:20:35;;;;;;;;;0.00;0.00;;;;;9.22;62.41;100748.09;2072418;28;47912;-58
2021/12/07 02:21:35;;;;;;;;;0.00;0.00;;;;;9.20;62.55;100748.09;2072443;28;48250;-58
2021/12/07 02:22:36;;;;;;;;;0.00;0.00;;;;;9.21;62.50;100748.97;2071607;28;47921;-58
2021/12/07 02:23:36;;;;;;;;;1.00;0.00;;;;;9.20;62.01;100755.19;2072124;28;47511;-59
2021/12/07 02:24:38;;;;;;;;;0.00;0.00;;;;;9.19;62.29;100750.78;2070972;28;47289;-58
2021/12/07 02:25:38;;;;;;;;;1.75;1.75;;;;;9.20;62.53;100755.19;2071912;28;47972;-58
2021/12/07 02:26:39;;;;;;;;;0.00;0.00;;;;;9.18;62.53;100755.19;2072525;28;48115;-58
2021/12/07 02:27:39;;;;;;;;;0.00;0.00;;;;;9.17;62.42;100755.22;2071955;28;47802;-58
2021/12/07 02:28:40;;;;;;;;;0.00;0.00;;;;;9.17;62.48;100757.88;2072230;28;47103;-58
2021/12/07 02:29:41;;;;;;;;;0.25;0.25;;;;;9.16;62.38;100762.31;2062796;28;47155;-59
2021/12/07 02:30:43;;;;;;;;;1.00;0.00;;;;;9.14;62.33;100757.00;2063612;28;47405;-59
2021/12/07 02:31:45;;;;;;;;;1.00;1.00;;;;;9.14;62.29;100759.66;2072278;28;46520;-59
2021/12/07 02:32:50;;;;;;;;;0.75;0.75;;;;;9.13;62.35;100759.69;2072232;28;47439;-58
2021/12/07 02:33:51;;;;;;;;;0.50;0.50;;;;;9.12;62.34;100757.94;2072122;28;47257;-58
2021/12/07 02:34:59;;;;;;;;;0.33;0.33;;;;;9.11;62.20;100754.41;2071991;28;48101;-58
2021/12/07 02:35:59;;;;;;;;;1.25;1.25;;;;;9.09;62.20;100756.22;2071563;28;47030;-59
2021/12/07 02:36:59;;;;;;;;;1.00;1.00;;;;;9.08;62.38;100767.69;2072511;28;48204;-58
2021/12/07 02:38:00;;;;;;;;;1.00;1.00;;;;;9.07;62.38;100763.31;2072108;28;46470;-58
2021/12/07 02:39:00;;;;;;;;;0.00;0.00;;;;;9.07;62.48;100763.31;2071262;28;47253;-58
2021/12/07 02:40:04;;;;;;;;;0.00;0.00;;;;;9.06;62.41;100771.28;2072003;28;47572;-58
2021/12/07 02:41:04;;;;;;;;;1.25;1.00;;;;;9.06;62.39;100766.84;2072195;28;48233;-58
2021/12/07 02:42:05;;;;;;;;;1.00;0.00;;;;;9.06;62.73;100771.28;2072217;28;47743;-58
2021/12/07 02:43:06;;;;;;;;;2.33;1.00;;;;;9.04;62.60;100768.66;2069311;28;48061;-59
2021/12/07 02:44:07;;;;;;;;;0.33;0.33;;;;;9.05;62.31;100769.53;2066942;28;47632;-58
2021/12/07 02:45:08;;;;;;;;;0.50;0.50;;;;;9.04;62.62;100763.34;2072144;28;47133;-58
2021/12/07 02:46:08;;;;;;;;;0.67;0.67;;;;;9.03;62.64;100756.31;2071972;28;46944;-58
2021/12/07 02:47:09;;;;;;;;;0.33;0.00;;;;;9.04;62.42;100770.44;2072211;28;48523;-58
2021/12/07 02:48:10;;;;;;;;;0.00;0.00;;;;;9.04;62.56;100765.13;2071946;28;47182;-58
2021/12/07 02:49:10;;;;;;;;;1.75;1.00;;;;;9.04;62.58;100771.28;2071545;28;46909;-58
2021/12/07 02:50:12;;;;;;;;;2.00;0.67;;;;;9.03;62.45;100758.09;2071911;28;46080;-59
2021/12/07 02:51:12;;;;;;;;;1.00;1.00;;;;;9.03;62.54;100764.25;2072363;28;47175;-58
2021/12/07 02:52:13;;;;;;;;;0.00;0.00;;;;;9.02;62.57;100764.25;2072034;28;45552;-58
2021/12/07 02:53:15;;;;;;;;;1.00;0.75;;;;;9.02;62.37;100769.53;2072063;28;47414;-58
2021/12/07 02:54:15;;;;;;;;;1.00;1.00;;;;;9.01;62.30;100768.66;2070733;28;48295;-59
2021/12/07 02:55:16;;;;;;;;;0.00;0.00;;;;;9.00;62.39;100774.00;2072306;28;48284;-58
2021/12/07 02:56:17;;;;;;;;;0.00;0.00;;;;;9.00;62.37;100768.69;2071425;28;48405;-58
2021/12/07 02:57:19;;;;;;;;;0.00;0.00;;;;;8.98;62.40;100766.06;2072325;28;48287;-59
2021/12/07 02:58:19;;;;;;;;;0.00;0.00;;;;;8.98;62.42;100766.06;2071936;28;47943;-58
2021/12/07 02:59:21;;;;;;;;;1.00;1.00;;;;;8.97;62.50;100774.03;2071841;28;47394;-58
2021/12/07 03:00:26;;;;;;;;;0.00;0.00;;;;;8.96;62.35;100769.66;2072042;28;48072;-58
2021/12/07 03:01:33;;;;;;;;;0.00;0.00;;;;;8.95;62.34;100774.06;2072001;28;48353;-58
2021/12/07 03:02:41;;;;;;;;;2.00;1.00;;;;;8.95;62.60;100767.91;2072107;28;48519;-58
2021/12/07 03:03:54;;;;;;;;;0.00;0.00;;;;;8.94;62.41;100772.31;2071768;28;47221;-59
2021/12/07 03:05:04;;;;;;;;;0.00;0.00;;;;;8.93;62.55;100767.94;2071463;28;46439;-59
2021/12/07 03:06:22;;;;;;;;;0.00;0.00;;;;;8.93;62.50;100770.56;2070280;28;48160;-59
2021/12/07 03:26:32;;;;;;;;;1.50;1.50;;;;;8.90;62.83;100789.16;2072175;28;47041;-58
2021/12/07 03:27:35;;;;;;;;;2.67;2.00;;;;;8.91;62.91;100787.38;2071930;28;47238;-58
2021/12/07 03:28:40;;;;;;;;;2.00;1.00;;;;;8.90;63.29;100790.91;2071721;28;47590;-58
2021/12/07 03:29:40;;;;;;;;;2.00;2.00;;;;;8.92;63.31;100795.28;2071236;28;48025;-59
2021/12/07 03:30:41;;;;;;;;;1.67;0.67;;;;;8.92;63.22;100784.72;2071447;28;47693;-59
2021/12/07 03:31:42;;;;;;;;;2.00;2.00;;;;;8.94;63.22;100787.31;2071637;28;47250;-58
2021/12/07 03:32:42;;;;;;;;;1.00;1.00;;;;;8.95;63.33;100789.94;2071912;28;47952;-58
2021/12/07 03:33:43;;;;;;;;;2.33;0.67;;;;;8.97;63.35;100789.91;2071726;28;45481;-59
2021/12/07 03:34:44;;;;;;;;;2.00;2.00;;;;;8.99;63.43;100796.94;2071035;28;45442;-59
2021/12/07 03:35:44;;;;;;;;;2.00;2.00;;;;;9.02;63.23;100798.66;2071467;28;48019;-59
2021/12/07 03:36:45;;;;;;;;;2.67;1.00;;;;;9.03;63.23;100796.03;2071984;28;47361;-58
2021/12/07 03:37:45;;;;;;;;;2.67;1.67;;;;;9.04;63.38;100797.78;2071696;28;47270;-58
2021/12/07 03:38:46;;;;;;;;;1.67;1.67;;;;;9.07;63.17;100807.44;2070410;28;47044;-58
2021/12/07 03:39:47;;;;;;;;;1.00;1.00;;;;;9.08;63.32;100806.53;2071225;28;48040;-58
2021/12/07 03:40:47;;;;;;;;;1.67;1.00;;;;;9.10;63.33;100802.97;2071790;28;48006;-58
2021/12/07 03:41:48;;;;;;;;;1.00;1.00;;;;;9.12;63.35;100798.50;2071848;28;47411;-59
2021/12/07 03:42:48;;;;;;;;;2.33;2.33;;;;;9.12;63.18;100798.50;2071781;28;47488;-58
2021/12/07 03:43:49;;;;;;;;;3.67;1.67;;;;;9.15;63.15;100792.31;2071646;28;47262;-59
2021/12/07 03:44:50;;;;;;;;;1.50;1.50;;;;;9.15;63.09;100794.97;2070717;28;48080;-58
2021/12/07 03:45:50;;;;;;;;;1.00;1.00;;;;;9.16;62.97;100795.84;2071533;28;47349;-58
2021/12/07 03:46:51;;;;;;;;;3.00;3.00;;;;;9.16;63.14;100790.56;2071255;28;47335;-59
2021/12/07 03:47:53;;;;;;;;;1.00;1.00;;;;;9.16;63.15;100783.47;2071062;28;48181;-59
2021/12/07 03:48:54;;;;;;;;;3.25;1.75;;;;;9.17;63.03;100781.72;2071780;28;48059;-58
2021/12/07 03:49:55;;;;;;;;;1.75;1.00;;;;;9.17;63.05;100790.53;2071261;28;48255;-58
2021/12/07 03:50:55;;;;;;;;;1.67;1.00;;;;;9.19;63.16;100790.50;2071725;28;47401;-59
2021/12/07 03:51:56;;;;;;;;;5.33;1.33;;;;;9.18;63.19;100792.28;2071886;28;47056;-58
2021/12/07 03:52:56;;;;;;;;;2.00;1.00;;;;;9.20;63.11;100794.91;2072028;28;47455;-58
2021/12/07 03:53:57;;;;;;;;;2.00;2.00;;;;;9.19;62.99;100796.66;2070853;28;45470;-58
2021/12/07 03:54:57;;;;;;;;;2.00;2.00;;;;;9.19;62.98;100793.16;2071516;28;46905;-58
2021/12/07 03:55:59;;;;;;;;;0.00;0.00;;;;;9.20;63.22;100792.25;2071759;28;48288;-58
2021/12/07 03:56:59;;;;;;;;;0.00;0.00;;;;;9.19;63.16;100791.38;2071773;28;47141;-57
2021/12/07 03:58:00;;;;;;;;;1.00;1.00;;;;;9.19;63.01;100795.78;2071800;28;47216;-57
2021/12/07 03:59:01;;;;;;;;;2.33;2.33;;;;;9.18;63.02;100789.63;2071211;28;47435;-58
2021/12/07 04:00:05;;;;;;;;;1.67;1.33;;;;;9.18;63.23;100783.47;2071187;28;47690;-58
2021/12/07 04:01:10;;;;;;;;;2.75;2.00;;;;;9.18;63.19;100773.75;2071684;28;48234;-59
2021/12/07 04:02:11;;;;;;;;;1.00;1.00;;;;;9.18;63.26;100771.09;2071626;28;47182;-58
2021/12/07 04:03:14;;;;;;;;;1.00;1.00;;;;;9.18;63.24;100762.28;2071638;28;48167;-58
2021/12/07 04:04:14;;;;;;;;;2.00;2.00;;;;;9.18;62.83;100763.16;2069756;28;48308;-58
2021/12/07 04:05:17;;;;;;;;;1.00;1.00;;;;;9.19;63.09;100771.97;2071695;28;46962;-59
2021/12/07 04:06:19;;;;;;;;;2.25;1.50;;;;;9.19;62.98;100774.63;2071404;28;47524;-58
2021/12/07 04:07:19;;;;;;;;;2.00;2.00;;;;;9.18;62.96;100786.97;2071873;28;47502;-58
2021/12/07 04:08:27;;;;;;;;;1.33;0.33;;;;;9.18;63.12;100779.03;2071522;28;48191;-58
2021/12/07 04:09:28;;;;;;;;;3.00;0.00;;;;;9.17;63.22;100769.34;2070852;28;46188;-58
2021/12/07 04:10:29;;;;;;;;;3.00;3.00;;;;;9.16;62.91;100757.00;2067409;28;47039;-59
2021/12/07 04:11:30;;;;;;;;;2.00;1.00;;;;;9.16;62.84;100764.06;2071628;28;47286;-58
2021/12/07 04:12:30;;;;;;;;;1.00;1.00;;;;;9.14;63.09;100759.66;2071740;28;48188;-58
2021/12/07 04:13:31;;;;;;;;;2.00;2.00;;;;;9.13;63.01;100757.91;2071374;28;47342;-58
2021/12/07 04:14:31;;;;;;;;;2.67;2.33;;;;;9.13;62.98;100760.56;2071367;28;45505;-58
2021/12/07 04:15:32;;;;;;;;;1.33;1.33;;;;;9.12;63.12;100773.81;2071421;28;48282;-58
2021/12/07 04:16:33;;;;;;;;;1.25;1.00;;;;;9.09;62.87;100776.50;2071983;28;48358;-59
2021/12/07 04:17:34;;;;;;;;;1.00;1.00;;;;;9.09;62.96;100780.03;2071618;28;48371;-58
2021/12/07 04:18:35;;;;;;;;;1.00;1.00;;;;;9.07;62.95;100784.47;2071648;28;48344;-59
2021/12/07 04:19:35;;;;;;;;;1.25;0.50;;;;;9.07;63.03;100789.78;2071009;28;47218;-59
2021/12/07 04:20:37;;;;;;;;;1.00;1.00;;;;;9.06;62.89;100789.81;2071277;28;48627;-57
2021/12/07 04:21:37;;;;;;;;;1.50;0.50;;;;;9.05;63.07;100780.97;2069299;28;47693;-58
2021/12/07 04:22:38;;;;;;;;;1.00;1.00;;;;;9.04;63.01;100791.59;2071886;28;47776;-58
2021/12/07 04:23:39;;;;;;;;;1.00;0.67;;;;;9.03;62.85;100788.09;2071190;28;47613;-59
2021/12/07 04:24:39;;;;;;;;;2.00;1.00;;;;;9.02;62.81;100786.34;2071201;28;48194;-58
2021/12/07 04:25:39;;;;;;;;;0.67;0.67;;;;;9.02;62.97;100785.44;2071375;28;46241;-58
2021/12/07 04:26:42;;;;;;;;;1.00;1.00;;;;;9.00;62.86;100790.75;2071632;28;48087;-58
2021/12/07 04:27:44;;;;;;;;;1.25;1.25;;;;;9.01;62.92;100781.03;2071435;28;46881;-58
2021/12/07 04:28:45;;;;;;;;;3.00;0.25;;;;;9.00;63.03;100785.44;2071483;28;47198;-57
2021/12/07 04:29:46;;;;;;;;;1.00;1.00;;;;;8.99;62.95;100782.84;2070914;28;47921;-57
2021/12/07 04:30:47;;;;;;;;;1.25;1.25;;;;;8.99;62.87;100783.69;2071671;28;48243;-56
2021/12/07 04:31:47;;;;;;;;;1.00;1.00;;;;;8.98;63.16;100776.66;2071438;28;47949;-58
2021/12/07 04:32:48;;;;;;;;;2.00;2.00;;;;;8.99;62.96;100782.84;2071552;28;47449;-58
2021/12/07 04:33:48;;;;;;;;;1.67;1.00;;;;;8.97;62.89;100781.97;2071119;28;47400;-61
2021/12/07 04:34:49;;;;;;;;;3.00;2.00;;;;;8.98;62.98;100784.59;2071183;28;47505;-58
2021/12/07 04:35:50;;;;;;;;;0.00;0.00;;;;;8.96;63.12;100783.75;2069708;28;47848;-57
2021/12/07 04:36:51;;;;;;;;;2.00;1.25;;;;;8.97;63.06;100777.56;2071539;28;47440;-59
2021/12/07 04:37:51;;;;;;;;;1.00;1.00;;;;;8.96;62.87;100772.28;2070963;28;47776;-57
2021/12/07 04:38:52;;;;;;;;;2.00;1.00;;;;;8.95;63.09;100774.06;2069443;28;48228;-59
2021/12/07 04:39:52;;;;;;;;;0.00;0.00;;;;;8.95;62.98;100776.72;2070966;28;47046;-59
2021/12/07 04:40:53;;;;;;;;;1.33;0.00;;;;;8.95;62.93;100773.19;2070787;28;47141;-59
2021/12/07 04:41:54;;;;;;;;;1.25;0.50;;;;;8.93;63.14;100773.22;2070799;28;47024;-59
2021/12/07 04:42:55;;;;;;;;;3.00;1.00;;;;;8.92;62.98;100779.41;2071600;28;47507;-59
2021/12/07 04:43:55;;;;;;;;;1.00;1.00;;;;;8.92;63.58;100782.06;2071072;28;47415;-59
2021/12/07 04:45:00;;;;;;;;;1.33;0.67;;;;;8.90;63.01;100775.91;2071337;28;48178;-59
2021/12/07 04:47:29;;;;;;;;;1.00;1.00;;;;;8.90;63.11;100781.22;2068709;28;47056;-59
2021/12/07 04:49:18;;;;;;;;;1.00;1.00;;;;;8.90;63.26;100778.56;2072448;28;47778;-59
2021/12/07 04:57:47;;;;;;;;;1.00;1.00;;;;;8.85;63.23;100773.31;2072845;28;46658;-58
2021/12/07 04:58:49;;;;;;;;;1.50;1.00;;;;;8.85;63.33;100777.72;2075979;28;47549;-59
2021/12/07 04:59:49;;;;;;;;;2.50;1.00;;;;;8.84;63.17;100778.63;2073221;28;47637;-58
2021/12/07 05:00:50;;;;;;;;;1.33;1.00;;;;;8.84;63.19;100781.28;2072603;28;48388;-59
2021/12/07 05:01:50;;;;;;;;;1.00;1.00;;;;;8.83;63.31;100774.25;2070699;28;48108;-58
2021/12/07 05:02:56;;;;;;;;;4.00;1.00;;;;;8.83;63.22;100782.19;2072969;28;48220;-58
2021/12/07 05:04:00;;;;;;;;;1.75;1.75;;;;;8.81;63.09;100782.19;2072492;28;47335;-59
2021/12/07 05:05:00;;;;;;;;;2.25;2.00;;;;;8.81;63.23;100783.97;2072431;28;47442;-60
2021/12/07 05:06:01;;;;;;;;;0.33;0.00;;;;;8.80;63.13;100783.09;2070323;28;48069;-59
2021/12/07 05:07:14;;;;;;;;;2.67;2.00;;;;;8.81;63.29;100776.91;2072740;28;47930;-59
2021/12/07 05:08:28;;;;;;;;;2.25;1.75;;;;;8.80;63.08;100775.16;2069356;28;48257;-58
2021/12/07 05:10:31;;;;;;;;;2.00;1.00;;;;;8.79;63.01;100769.88;2073164;28;47269;-58
2021/12/07 05:14:00;;;;;;;;;3.00;3.00;;;;;8.77;63.11;100776.97;2064334;28;48000;-58
2021/12/07 05:15:12;;;;;;;;;1.50;1.50;;;;;8.77;63.13;100782.28;2072810;28;47922;-58
2021/12/07 05:17:42;;;;;;;;;3.00;3.00;;;;;8.76;63.24;100769.91;2072805;28;48364;-58
2021/12/07 05:24:23;;;;;;;;;2.00;1.00;;;;;8.72;63.24;100773.50;2045804;28;47191;-59
2021/12/07 05:37:54;;;;;;;;;1.00;1.00;;;;;8.67;63.27;100781.50;2072502;28;48202;-58
2021/12/07 05:38:55;;;;;;;;;3.00;2.50;;;;;8.67;63.94;100778.00;2072467;28;45576;-58
2021/12/07 05:39:56;;;;;;;;;3.00;3.00;;;;;8.68;63.55;100779.75;2071981;28;47487;-59
2021/12/07 05:40:57;;;;;;;;;0.50;0.50;;;;;8.67;63.37;100780.63;2072677;28;48092;-58
2021/12/07 05:41:57;;;;;;;;;3.00;2.00;;;;;8.68;63.35;100777.09;2072517;28;46804;-59
2021/12/07 05:42:58;;;;;;;;;2.67;2.67;;;;;8.68;63.38;100785.03;2070932;28;47935;-60
2021/12/07 05:43:59;;;;;;;;;6.50;3.50;;;;;8.68;63.47;100787.69;2066970;28;47332;-61
2021/12/07 05:44:59;;;;;;;;;3.00;2.67;;;;;8.68;63.52;100790.31;2072709;28;47559;-58
2021/12/07 05:46:01;;;;;;;;;3.00;2.67;;;;;8.67;63.51;100785.94;2071652;28;48066;-59
2021/12/07 05:47:05;;;;;;;;;1.75;1.75;;;;;8.67;63.41;100785.94;2072523;28;48079;-59
2021/12/07 05:48:07;;;;;;;;;1.00;1.00;;;;;8.66;63.34;100777.13;2072066;28;46198;-59
2021/12/07 05:49:08;;;;;;;;;2.25;2.25;;;;;8.65;63.44;100778.00;2071888;28;48693;-59
2021/12/07 05:50:11;;;;;;;;;3.00;3.00;;;;;8.65;63.59;100780.66;2072365;28;47221;-59
2021/12/07 05:51:11;;;;;;;;;5.50;2.25;;;;;8.65;63.54;100774.50;2072395;28;48061;-59
2021/12/07 05:52:12;;;;;;;;;3.00;1.33;;;;;8.63;63.56;100777.13;2072659;28;48187;-59
2021/12/07 05:53:13;;;;;;;;;3.67;3.67;;;;;8.64;63.38;100778.00;2072548;28;47417;-59
2021/12/07 05:54:13;;;;;;;;;2.33;2.33;;;;;8.63;63.48;100782.41;2070778;28;48517;-59
2021/12/07 05:55:14;;;;;;;;;3.00;2.00;;;;;8.63;63.46;100776.25;2072857;28;48230;-58
2021/12/07 05:56:15;;;;;;;;;2.25;1.50;;;;;8.62;63.51;100771.88;2072438;28;48163;-59
2021/12/07 05:57:15;;;;;;;;;3.00;3.00;;;;;8.62;63.50;100777.16;2072513;28;47991;-59
2021/12/07 05:58:16;;;;;;;;;3.00;3.00;;;;;8.60;63.43;100779.81;2072198;28;46300;-58
2021/12/07 05:59:17;;;;;;;;;3.00;2.33;;;;;8.60;63.56;100777.19;2072066;28;48271;-59
2021/12/07 06:00:26;;;;;;;;;2.25;2.25;;;;;8.60;63.52;100784.25;2061408;28;46444;-59
2021/12/07 06:01:26;;;;;;;;;4.50;3.00;;;;;8.60;63.47;100781.59;2062190;28;47527;-58
2021/12/07 06:02:27;;;;;;;;;2.67;2.67;;;;;8.59;63.62;100787.78;2072684;28;48215;-58
2021/12/07 06:03:28;;;;;;;;;1.33;0.67;;;;;8.57;63.61;100785.16;2071580;28;48160;-58
2021/12/07 06:04:30;;;;;;;;;4.25;4.25;;;;;8.58;63.73;100784.25;2071861;28;48426;-58
2021/12/07 06:05:32;;;;;;;;;5.00;3.00;;;;;8.57;63.59;100782.50;2072300;28;48011;-58
2021/12/07 06:06:33;;;;;;;;;7.50;5.00;;;;;8.56;63.52;100788.69;2072574;28;47389;-59
2021/12/07 06:07:33;;;;;;;;;2.00;2.00;;;;;8.56;63.75;100783.41;2072297;28;47291;-58
2021/12/07 06:08:34;;;;;;;;;4.00;3.00;;;;;8.56;63.70;100791.34;2072404;28;47240;-60
2021/12/07 06:09:34;;;;;;;;;6.00;4.00;;;;;8.54;63.52;100793.13;2071815;28;48013;-58
2021/12/07 06:10:35;;;;;;;;;5.67;5.00;;;;;8.55;63.64;100794.88;2072409;28;47477;-59
2021/12/07 06:11:36;;;;;;;;;5.25;3.25;;;;;8.54;63.72;100791.38;2072140;28;47978;-58
2021/12/07 06:12:36;;;;;;;;;5.33;4.33;;;;;8.54;63.67;100787.84;2072138;28;48510;-59
2021/12/07 06:13:37;;;;;;;;;5.33;2.33;;;;;8.53;63.71;100794.03;2071970;28;47308;-58
2021/12/07 06:14:44;;;;;;;;;2.75;2.75;;;;;8.52;63.61;100787.88;2072258;28;47175;-58
2021/12/07 06:15:45;;;;;;;;;3.25;3.25;;;;;8.52;63.80;100789.66;2072169;28;47121;-58
2021/12/07 06:16:49;;;;;;;;;3.25;3.25;;;;;8.51;63.75;100790.50;2072616;28;47476;-59
2021/12/07 06:17:51;;;;;;;;;4.25;4.00;;;;;8.50;63.82;100784.34;2072167;28;47585;-57
2021/12/07 06:18:51;;;;;;;;;3.00;3.00;;;;;8.50;63.83;100786.13;2072377;28;48308;-59
2021/12/07 06:19:52;;;;;;;;;5.33;4.33;;;;;8.49;63.88;100779.94;2071124;28;47263;-58
2021/12/07 06:20:52;;;;;;;;;1.67;1.67;;;;;8.49;63.70;100779.06;2071375;28;48033;-59
2021/12/07 06:21:53;;;;;;;;;3.67;3.67;;;;;8.48;63.77;100772.91;2071968;28;47254;-59
2021/12/07 06:22:54;;;;;;;;;3.00;2.50;;;;;8.50;63.78;100770.25;2071526;28;47381;-58
2021/12/07 06:23:55;;;;;;;;;5.33;4.67;;;;;8.49;63.94;100771.13;2071285;28;48498;-60